createdAt,value
2018-10-16T00:00:46.438Z,60.79
2018-10-16T00:03:15.406Z,60.78
2018-10-16T00:05:44.527Z,61.75
2018-10-16T00:08:13.337Z,61.37
2018-10-16T00:10:50.422Z,62.03
2018-10-16T00:13:19.654Z,61.68
2018-10-16T00:15:48.413Z,62.01
2018-10-16T00:18:17.187Z,61.93
2018-10-16T00:20:45.914Z,62.17
2018-10-16T00:23:14.912Z,62.20
2018-10-16T00:25:43.729Z,62.20
2018-10-16T00:28:12.545Z,62.13
2018-10-16T00:30:52.247Z,62.29
2018-10-16T00:33:22.319Z,63.17
2018-10-16T00:35:52.191Z,63.67
2018-10-16T00:38:21.000Z,62.98
2018-10-16T00:40:54.858Z,63.95
2018-10-16T00:43:23.709Z,63.82
2018-10-16T00:45:52.550Z,64.35
2018-10-16T00:48:21.773Z,63.82
2018-10-16T00:50:54.220Z,64.08
2018-10-16T00:53:23.044Z,64.33
2018-10-16T00:55:52.253Z,64.18
2018-10-16T00:58:21.099Z,64.98
2018-10-16T01:00:49.931Z,64.64
2018-10-16T01:03:18.763Z,65.28
2018-10-16T01:05:50.598Z,64.89
2018-10-16T01:08:19.813Z,65.06
2018-10-16T01:10:48.709Z,64.45
2018-10-16T01:13:17.513Z,64.59
2018-10-16T01:15:46.683Z,64.14
2018-10-16T01:18:15.489Z,64.10
2018-10-16T01:20:44.269Z,64.39
2018-10-16T01:23:13.414Z,64.02
2018-10-16T01:28:21.754Z,64.08
2018-10-16T01:30:50.579Z,64.64
2018-10-16T01:33:19.428Z,65.06
2018-10-16T01:35:48.769Z,65.03
2018-10-16T01:38:17.630Z,65.44
2018-10-16T01:40:51.113Z,65.17
2018-10-16T01:43:20.366Z,65.48
2018-10-16T01:45:49.233Z,65.45
2018-10-16T01:48:18.086Z,66.01
2018-10-16T01:50:50.901Z,65.84
2018-10-16T01:53:19.913Z,66.46
2018-10-16T01:55:48.787Z,66.43
2018-10-16T01:58:17.945Z,67.23
2018-10-16T02:00:53.492Z,67.35
2018-10-16T02:03:22.476Z,67.54
2018-10-16T02:05:51.463Z,67.92
2018-10-16T02:08:20.731Z,67.52
2018-10-16T02:10:52.980Z,67.68
2018-10-16T02:13:21.971Z,67.34
2018-10-16T02:15:55.244Z,67.20
2018-10-16T02:18:25.650Z,67.92
2018-10-16T02:20:54.810Z,67.59
2018-10-16T02:23:23.594Z,67.95
2018-10-16T02:25:53.978Z,67.27
2018-10-16T02:28:22.837Z,67.75
2018-10-16T02:30:52.614Z,67.59
2018-10-16T02:33:21.798Z,67.55
2018-10-16T02:35:53.957Z,67.18
2018-10-16T02:38:22.913Z,67.01
2018-10-16T02:40:54.021Z,67.36
2018-10-16T02:43:22.860Z,67.44
2018-10-16T02:45:51.649Z,67.65
2018-10-16T02:48:20.890Z,67.57
2018-10-16T02:50:49.742Z,68.22
2018-10-16T02:53:18.574Z,68.08
2018-10-16T02:55:47.771Z,67.83
2018-10-16T02:58:22.534Z,68.35
2018-10-16T03:00:51.354Z,68.35
2018-10-16T03:03:20.566Z,68.39
2018-10-16T03:05:49.374Z,69.18
2018-10-16T03:08:18.202Z,68.42
2018-10-16T03:10:47.026Z,69.33
2018-10-16T03:13:19.101Z,69.14
2018-10-16T03:15:47.924Z,69.35
2018-10-16T03:18:17.210Z,69.18
2018-10-16T03:20:46.329Z,69.81
2018-10-16T03:23:15.548Z,70.40
2018-10-16T03:25:44.830Z,70.37
2018-10-16T03:28:13.645Z,70.21
2018-10-16T03:30:42.552Z,70.56
2018-10-16T03:33:11.718Z,70.49
2018-10-16T03:35:40.544Z,70.40
2018-10-16T03:38:09.353Z,70.19
2018-10-16T03:40:38.623Z,70.57
2018-10-16T03:43:07.471Z,70.92
2018-10-16T03:45:36.349Z,71.25
2018-10-16T03:48:06.353Z,71.06
2018-10-16T03:50:35.280Z,71.75
2018-10-16T03:53:04.054Z,71.66
2018-10-16T03:55:34.252Z,71.87
2018-10-16T03:58:03.770Z,71.88
2018-10-16T04:00:32.599Z,72.28
2018-10-16T04:03:01.704Z,72.16
2018-10-16T04:05:30.560Z,71.92
2018-10-16T04:07:59.348Z,71.87
2018-10-16T04:10:28.459Z,72.33
2018-10-16T04:12:57.276Z,72.05
2018-10-16T04:15:26.095Z,72.69
2018-10-16T04:17:59.690Z,72.28
2018-10-16T04:20:28.520Z,71.92
2018-10-16T04:22:57.926Z,72.66
2018-10-16T04:25:26.700Z,72.70
2018-10-16T04:27:55.555Z,72.13
2018-10-16T04:30:24.693Z,72.05
2018-10-16T04:32:53.522Z,72.83
2018-10-16T04:35:29.006Z,72.93
2018-10-16T04:37:58.312Z,73.30
2018-10-16T04:40:27.182Z,72.65
2018-10-16T04:42:56.045Z,72.75
2018-10-16T04:45:25.185Z,72.87
2018-10-16T04:47:54.024Z,73.13
2018-10-16T04:50:22.885Z,72.85
2018-10-16T04:52:52.132Z,73.18
2018-10-16T04:55:21.036Z,72.51
2018-10-16T04:57:49.834Z,73.36
2018-10-16T05:00:20.698Z,72.57
2018-10-16T05:02:49.625Z,72.87
2018-10-16T05:05:25.368Z,73.26
2018-10-16T05:07:54.621Z,73.11
2018-10-16T05:10:23.561Z,73.58
2018-10-16T05:12:52.458Z,73.20
2018-10-16T05:15:31.838Z,73.47
2018-10-16T05:18:00.795Z,73.87
2018-10-16T05:20:36.106Z,73.96
2018-10-16T05:23:05.390Z,73.98
2018-10-16T05:25:34.260Z,73.45
2018-10-16T05:28:04.015Z,73.65
2018-10-16T05:30:33.137Z,73.42
2018-10-16T05:33:02.190Z,73.66
2018-10-16T05:35:31.109Z,73.61
2018-10-16T05:38:00.456Z,74.18
2018-10-16T05:40:29.316Z,74.01
2018-10-16T05:42:58.191Z,74.24
2018-10-16T05:45:29.233Z,74.85
2018-10-16T05:47:58.119Z,74.20
2018-10-16T05:50:27.009Z,74.19
2018-10-16T05:52:56.250Z,74.67
2018-10-16T05:55:32.319Z,74.48
2018-10-16T05:58:02.393Z,75.06
2018-10-16T06:00:39.789Z,74.74
2018-10-16T06:03:09.762Z,74.76
2018-10-16T06:05:39.060Z,74.82
2018-10-16T06:08:11.625Z,74.58
2018-10-16T06:10:40.582Z,74.80
2018-10-16T06:13:09.760Z,75.19
2018-10-16T06:15:38.600Z,75.15
2018-10-16T06:18:15.432Z,75.02
2018-10-16T06:20:44.788Z,74.73
2018-10-16T06:23:15.608Z,74.43
2018-10-16T06:25:44.462Z,75.25
2018-10-16T06:28:24.794Z,74.87
2018-10-16T06:30:53.705Z,74.30
2018-10-16T06:33:24.347Z,74.66
2018-10-16T06:35:53.553Z,74.93
2018-10-16T06:38:22.364Z,74.69
2018-10-16T06:40:51.484Z,74.63
2018-10-16T06:43:20.492Z,74.17
2018-10-16T06:45:49.393Z,74.61
2018-10-16T06:48:19.013Z,74.43
2018-10-16T06:50:48.108Z,74.50
2018-10-16T06:53:17.055Z,73.80
2018-10-16T06:55:45.955Z,73.70
2018-10-16T06:58:17.020Z,73.70
2018-10-16T07:00:45.848Z,73.77
2018-10-16T07:03:14.656Z,74.14
2018-10-16T07:05:48.705Z,74.24
2018-10-16T07:08:17.558Z,73.66
2018-10-16T07:10:46.666Z,73.64
2018-10-16T07:15:55.039Z,73.36
2018-10-16T07:18:23.974Z,73.19
2018-10-16T07:20:52.903Z,72.54
2018-10-16T07:23:33.044Z,72.03
2018-10-16T07:26:02.257Z,71.79
2018-10-16T07:28:31.485Z,71.05
2018-10-16T07:31:01.775Z,70.81
2018-10-16T07:33:30.675Z,69.76
2018-10-16T07:36:04.344Z,68.98
2018-10-16T07:38:33.353Z,68.69
2018-10-16T07:41:02.176Z,67.65
2018-10-16T07:43:31.581Z,67.11
2018-10-16T07:46:00.420Z,66.68
2018-10-16T07:48:29.508Z,66.07
2018-10-16T07:51:02.765Z,65.17
2018-10-16T07:53:31.731Z,65.08
2018-10-16T07:56:00.601Z,64.64
2018-10-16T07:58:29.801Z,64.11
2018-10-16T08:00:58.676Z,63.15
2018-10-16T08:03:27.551Z,62.60
2018-10-16T08:05:57.393Z,62.55
2018-10-16T08:08:26.280Z,62.24
2018-10-16T08:10:55.095Z,62.05
2018-10-16T08:13:24.260Z,61.79
2018-10-16T08:15:54.265Z,61.30
2018-10-16T08:18:23.086Z,60.15
2018-10-16T08:20:52.185Z,62.40
2018-10-16T08:23:21.058Z,61.65
2018-10-16T08:25:49.871Z,61.35
2018-10-16T08:28:23.717Z,60.75
2018-10-16T08:30:52.586Z,60.21
2018-10-16T08:33:22.744Z,58.91
2018-10-16T08:35:51.651Z,58.54
2018-10-16T08:38:54.797Z,58.72
2018-10-16T08:41:51.331Z,59.47
2018-10-16T08:45:28.161Z,58.63
2018-10-16T08:48:08.710Z,56.31
2018-10-16T08:50:54.485Z,54.54
2018-10-16T08:53:23.634Z,53.18
2018-10-16T08:55:53.252Z,53.62
2018-10-16T08:58:22.314Z,53.37
2018-10-16T09:00:51.488Z,52.68
2018-10-16T09:03:25.427Z,51.48
2018-10-16T09:05:54.311Z,50.98
2018-10-16T09:10:56.825Z,50.56
2018-10-16T09:13:25.686Z,49.33
2018-10-16T09:15:54.872Z,48.09
2018-10-16T09:18:23.697Z,47.25
2018-10-16T09:20:52.577Z,46.61
2018-10-16T09:23:21.788Z,46.31
2018-10-16T09:25:50.683Z,45.67
2018-10-16T09:28:25.320Z,45.21
2018-10-16T09:30:54.247Z,43.30
2018-10-16T09:33:23.057Z,42.40
2018-10-16T09:35:52.212Z,41.44
2018-10-16T09:38:26.770Z,41.00
2018-10-16T09:40:55.629Z,40.51
2018-10-16T09:43:24.886Z,39.63
2018-10-16T09:45:53.707Z,38.58
2018-10-16T09:48:26.292Z,38.79
2018-10-16T09:50:55.481Z,36.84
2018-10-16T09:53:24.327Z,36.91
2018-10-16T09:55:53.644Z,34.82
2018-10-16T09:58:22.798Z,34.27
2018-10-16T10:00:56.669Z,34.04
2018-10-16T10:03:25.434Z,33.68
2018-10-16T10:05:54.617Z,32.97
2018-10-16T10:08:23.538Z,31.52
2018-10-16T10:10:58.940Z,31.75
2018-10-16T10:13:28.115Z,32.04
2018-10-16T10:15:56.994Z,31.81
2018-10-16T10:18:25.913Z,30.36
2018-10-16T10:20:55.070Z,31.04
2018-10-16T10:23:23.926Z,30.39
2018-10-16T10:25:52.700Z,30.84
2018-10-16T10:28:25.575Z,28.77
2018-10-16T10:30:54.408Z,29.72
2018-10-16T10:33:23.312Z,30.00
2018-10-16T10:35:52.463Z,27.83
2018-10-16T10:38:21.383Z,28.11
2018-10-16T10:40:50.233Z,27.77
2018-10-16T10:43:21.208Z,27.66
2018-10-16T10:45:50.061Z,27.94
2018-10-16T10:48:18.929Z,27.55
2018-10-16T10:50:48.336Z,26.34
2018-10-16T10:53:17.095Z,26.90
2018-10-16T10:55:45.956Z,26.40
2018-10-16T10:58:15.191Z,26.69
2018-10-16T11:00:44.047Z,27.06
2018-10-16T11:03:13.133Z,26.24
2018-10-16T11:05:41.878Z,27.46
2018-10-16T11:08:14.694Z,27.73
2018-10-16T11:10:43.899Z,28.02
2018-10-16T11:13:12.823Z,27.40
2018-10-16T11:15:42.272Z,27.46
2018-10-16T11:18:11.499Z,26.30
2018-10-16T11:20:40.348Z,26.72
2018-10-16T11:23:09.316Z,27.48
2018-10-16T11:25:38.482Z,28.80
2018-10-16T11:28:07.396Z,28.05
2018-10-16T11:30:36.310Z,27.85
2018-10-16T11:33:05.708Z,28.36
2018-10-16T11:35:34.555Z,28.03
2018-10-16T11:38:06.929Z,28.51
2018-10-16T11:40:40.871Z,27.69
2018-10-16T11:43:09.836Z,28.09
2018-10-16T11:45:38.755Z,28.63
2018-10-16T11:48:07.943Z,29.07
2018-10-16T11:50:36.877Z,29.78
2018-10-16T11:53:06.930Z,29.52
2018-10-16T11:55:36.141Z,28.50
2018-10-16T11:58:06.352Z,29.39
2018-10-16T12:00:35.317Z,29.99
2018-10-16T12:03:04.538Z,29.17
2018-10-16T12:05:37.935Z,29.92
2018-10-16T12:08:06.890Z,30.12
2018-10-16T12:10:39.466Z,30.22
2018-10-16T12:13:08.418Z,28.78
2018-10-16T12:15:42.302Z,29.18
2018-10-16T12:18:16.322Z,29.42
2018-10-16T12:20:48.736Z,30.07
2018-10-16T12:23:17.669Z,29.39
2018-10-16T12:25:46.810Z,29.61
2018-10-16T12:28:16.048Z,28.71
2018-10-16T12:30:45.047Z,28.40
2018-10-16T12:33:14.071Z,27.77
2018-10-16T12:35:43.148Z,27.82
2018-10-16T12:38:12.028Z,26.99
2018-10-16T12:40:40.906Z,28.47
2018-10-16T12:43:13.689Z,27.72
2018-10-16T12:45:42.533Z,27.43
2018-10-16T12:48:13.490Z,26.81
2018-10-16T12:50:42.612Z,28.14
2018-10-16T12:53:11.534Z,27.38
2018-10-16T12:55:40.354Z,27.34
2018-10-16T12:58:09.474Z,27.64
2018-10-16T13:00:38.334Z,26.70
2018-10-16T13:03:07.260Z,27.11
2018-10-16T13:05:36.135Z,27.44
2018-10-16T13:08:05.807Z,27.43
2018-10-16T13:10:39.753Z,27.00
2018-10-16T13:13:08.645Z,27.07
2018-10-16T13:15:37.532Z,26.82
2018-10-16T13:18:06.719Z,26.37
2018-10-16T13:20:35.546Z,27.18
2018-10-16T13:23:06.334Z,28.44
2018-10-16T13:25:35.507Z,27.90
2018-10-16T13:28:05.234Z,27.72
2018-10-16T13:30:34.032Z,27.72
2018-10-16T13:33:03.239Z,29.13
2018-10-16T13:38:41.961Z,30.40
2018-10-16T13:41:16.423Z,30.37
2018-10-16T13:43:45.588Z,30.07
2018-10-16T13:46:14.480Z,30.45
2018-10-16T13:48:43.334Z,30.40
2018-10-16T13:51:15.956Z,29.76
2018-10-16T13:53:44.853Z,30.12
2018-10-16T13:56:14.212Z,30.94
2018-10-16T13:58:43.007Z,30.09
2018-10-16T14:01:11.828Z,29.65
2018-10-16T14:03:40.919Z,30.95
2018-10-16T14:06:14.743Z,30.60
2018-10-16T14:08:43.590Z,29.93
2018-10-16T14:11:12.747Z,31.17
2018-10-16T14:13:41.591Z,30.04
2018-10-16T14:16:11.431Z,29.94
2018-10-16T14:18:40.580Z,35.12
2018-10-16T14:21:09.442Z,33.77
2018-10-16T14:23:38.324Z,36.63
2018-10-16T14:26:10.895Z,36.95
2018-10-16T14:28:39.677Z,40.88
2018-10-16T14:31:13.729Z,40.62
2018-10-16T14:33:42.929Z,37.41
2018-10-16T14:36:11.787Z,41.67
2018-10-16T14:38:40.780Z,35.89
2018-10-16T14:41:13.349Z,37.88
2018-10-16T14:43:44.001Z,38.91
2018-10-16T14:46:12.980Z,42.12
2018-10-16T14:48:42.026Z,40.85
2018-10-16T14:51:10.913Z,42.13
2018-10-16T14:53:39.803Z,40.13
2018-10-16T14:56:09.093Z,42.29
2018-10-16T14:58:40.858Z,42.98
2018-10-16T15:01:09.770Z,41.11
2018-10-16T15:03:45.465Z,40.34
2018-10-16T15:06:14.429Z,41.83
2018-10-16T15:08:43.280Z,41.72
2018-10-16T15:11:12.059Z,39.79
2018-10-16T15:13:40.824Z,45.22
2018-10-16T15:16:15.204Z,41.75
2018-10-16T15:18:43.920Z,40.36
2018-10-16T15:21:12.694Z,41.63
2018-10-16T15:23:41.848Z,43.64
2018-10-16T15:26:10.692Z,42.94
2018-10-16T15:28:39.467Z,41.52
2018-10-16T15:31:10.607Z,42.32
2018-10-16T15:33:39.427Z,43.68
2018-10-16T15:36:10.095Z,42.40
2018-10-16T15:38:38.839Z,43.58
2018-10-16T15:41:08.202Z,43.52
2018-10-16T15:43:37.359Z,40.87
2018-10-16T15:46:06.421Z,41.08
2018-10-16T15:51:10.703Z,42.82
2018-10-16T15:53:40.830Z,41.90
2018-10-16T15:56:10.051Z,41.57
2018-10-16T15:58:39.114Z,42.92
2018-10-16T16:01:07.972Z,43.71
2018-10-16T16:03:37.160Z,46.49
2018-10-16T16:06:06.763Z,45.00
2018-10-16T16:08:35.697Z,46.72
2018-10-16T16:11:04.978Z,45.60
2018-10-16T16:13:33.849Z,46.64
2018-10-16T16:16:03.595Z,48.06
2018-10-16T16:18:32.798Z,47.05
2018-10-16T16:21:01.736Z,47.88
2018-10-16T16:23:30.617Z,49.02
2018-10-16T16:25:59.808Z,47.65
2018-10-16T16:28:28.673Z,47.82
2018-10-16T16:30:57.632Z,47.06
2018-10-16T16:33:26.833Z,47.31
2018-10-16T16:35:55.693Z,48.91
2018-10-16T16:38:26.850Z,46.92
2018-10-16T16:40:56.017Z,48.40
2018-10-16T16:43:35.730Z,50.03
2018-10-16T16:46:05.992Z,48.97
2018-10-16T16:48:38.508Z,49.26
2018-10-16T16:51:07.576Z,48.85
2018-10-16T16:53:36.891Z,51.09
2018-10-16T16:56:06.435Z,49.94
2018-10-16T16:58:35.798Z,50.22
2018-10-16T17:01:09.801Z,49.72
2018-10-16T17:03:38.746Z,51.15
2018-10-16T17:06:10.729Z,51.64
2018-10-16T17:08:39.989Z,51.44
2018-10-16T17:11:08.934Z,52.68
2018-10-16T17:13:37.806Z,51.50
2018-10-16T17:16:07.118Z,52.13
2018-10-16T17:18:37.567Z,50.36
2018-10-16T17:21:06.420Z,49.40
2018-10-16T17:23:35.544Z,50.83
2018-10-16T17:26:06.939Z,49.86
2018-10-16T17:28:36.311Z,49.65
2018-10-16T17:31:06.995Z,50.76
2018-10-16T17:33:39.578Z,50.65
2018-10-16T17:36:08.740Z,50.22
2018-10-16T17:38:37.783Z,51.69
2018-10-16T17:41:07.293Z,49.38
2018-10-16T17:43:38.427Z,49.99
2018-10-16T17:46:07.452Z,49.79
2018-10-16T17:48:36.968Z,49.28
2018-10-16T17:51:06.391Z,51.04
2018-10-16T17:53:35.772Z,48.97
2018-10-16T17:56:06.806Z,49.75
2018-10-16T17:58:36.371Z,49.98
2018-10-16T18:01:06.265Z,50.64
2018-10-16T18:03:36.027Z,52.25
2018-10-16T18:06:06.308Z,51.91
2018-10-16T18:08:35.885Z,50.26
2018-10-16T18:11:06.026Z,50.96
2018-10-16T18:13:36.294Z,51.33
2018-10-16T18:16:07.420Z,52.19
2018-10-16T18:18:37.639Z,51.30
2018-10-16T18:21:07.352Z,52.00
2018-10-16T18:23:40.721Z,51.50
2018-10-16T18:26:10.838Z,51.07
2018-10-16T18:28:40.433Z,51.56
2018-10-16T18:31:09.968Z,51.52
2018-10-16T18:33:39.886Z,51.57
2018-10-16T18:36:14.248Z,51.84
2018-10-16T18:38:43.769Z,51.78
2018-10-16T18:41:18.661Z,52.15
2018-10-16T18:43:48.040Z,52.73
2018-10-16T18:46:20.636Z,52.51
2018-10-16T18:48:50.452Z,53.10
2018-10-16T18:51:23.430Z,51.80
2018-10-16T18:53:54.853Z,52.40
2018-10-16T18:56:24.729Z,52.15
2018-10-16T18:58:54.228Z,53.18
2018-10-16T19:01:23.703Z,53.41
2018-10-16T19:04:18.044Z,52.92
2018-10-16T19:06:49.291Z,52.77
2018-10-16T19:09:19.212Z,52.63
2018-10-16T19:11:48.939Z,52.59
2018-10-16T19:14:23.778Z,53.15
2018-10-16T19:16:53.576Z,53.42
2018-10-16T19:19:23.152Z,53.63
2018-10-16T19:21:53.594Z,53.11
2018-10-16T19:24:23.367Z,53.32
2018-10-16T19:26:55.528Z,52.20
2018-10-16T19:29:25.144Z,51.81
2018-10-16T19:31:54.994Z,52.22
2018-10-16T19:34:24.580Z,51.89
2018-10-16T19:39:34.240Z,52.13
2018-10-16T19:42:09.621Z,52.03
2018-10-16T19:44:39.181Z,51.37
2018-10-16T19:47:23.152Z,52.27
2018-10-16T19:49:52.994Z,52.64
2018-10-16T19:52:22.535Z,53.10
2018-10-16T19:54:51.989Z,53.21
2018-10-16T19:57:21.910Z,53.49
2018-10-16T19:59:51.387Z,53.66
2018-10-16T20:02:20.863Z,53.49
2018-10-16T20:04:50.703Z,53.32
2018-10-16T20:07:20.251Z,53.59
2018-10-16T20:09:54.746Z,54.22
2018-10-16T20:12:24.355Z,54.64
2018-10-16T20:14:53.618Z,55.14
2018-10-16T20:17:23.066Z,55.11
2018-10-16T20:19:52.623Z,54.61
2018-10-16T20:22:25.219Z,55.15
2018-10-16T20:24:54.530Z,55.97
2018-10-16T20:27:26.157Z,55.70
2018-10-16T20:29:55.256Z,56.01
2018-10-16T20:32:24.551Z,56.23
2018-10-16T20:34:57.030Z,55.95
2018-10-16T20:37:26.190Z,56.17
2018-10-16T20:40:01.641Z,56.01
2018-10-16T20:42:30.780Z,56.19
2018-10-16T20:45:05.914Z,56.52
2018-10-16T20:47:34.983Z,55.98
2018-10-16T20:50:05.317Z,57.11
2018-10-16T20:52:34.431Z,56.91
2018-10-16T20:55:03.438Z,56.87
2018-10-16T20:57:38.059Z,57.52
2018-10-16T21:00:07.690Z,57.43
2018-10-16T21:02:36.775Z,57.73
2018-10-16T21:05:08.118Z,57.93
2018-10-16T21:07:36.874Z,58.63
2018-10-16T21:10:07.073Z,58.22
2018-10-16T21:12:36.236Z,59.02
2018-10-16T21:15:05.428Z,58.62
2018-10-16T21:17:34.226Z,58.54
2018-10-16T21:20:06.034Z,59.43
2018-10-16T21:22:34.829Z,58.75
2018-10-16T21:25:05.009Z,59.65
2018-10-16T21:27:41.688Z,59.21
2018-10-16T21:30:10.678Z,59.12
2018-10-16T21:32:39.606Z,58.89
2018-10-16T21:35:08.831Z,59.61
2018-10-16T21:37:40.829Z,59.37
2018-10-16T21:40:09.975Z,59.67
2018-10-16T21:42:44.325Z,60.53
2018-10-16T21:45:15.187Z,60.67
2018-10-16T21:47:44.003Z,61.24
2018-10-16T21:50:17.119Z,60.40
2018-10-16T21:52:45.914Z,61.44
2018-10-16T21:55:14.816Z,60.83
2018-10-16T21:57:43.946Z,61.33
2018-10-16T22:00:17.932Z,61.07
2018-10-16T22:02:50.794Z,62.27
2018-10-16T22:05:27.767Z,62.35
2018-10-16T22:07:57.687Z,62.75
2018-10-16T22:10:26.537Z,62.66
2018-10-16T22:12:55.404Z,63.06
2018-10-16T22:15:29.456Z,62.79
2018-10-16T22:17:58.668Z,62.72
2018-10-16T22:20:27.485Z,62.60
2018-10-16T22:22:56.443Z,62.68
2018-10-16T22:25:31.067Z,63.13
2018-10-16T22:27:59.909Z,63.42
2018-10-16T22:30:33.530Z,63.86
2018-10-16T22:33:03.029Z,63.38
2018-10-16T22:35:31.836Z,63.81
2018-10-16T22:38:00.733Z,64.04
2018-10-16T22:40:29.913Z,63.46
2018-10-16T22:43:02.326Z,64.43
2018-10-16T22:45:31.178Z,64.54
2018-10-16T22:48:00.425Z,63.86
2018-10-16T22:50:44.056Z,65.01
2018-10-16T22:53:13.276Z,65.02
2018-10-16T22:55:42.113Z,65.04
2018-10-16T22:58:11.804Z,64.98
2018-10-16T23:00:40.908Z,64.64
2018-10-16T23:03:11.824Z,64.91
2018-10-16T23:05:40.708Z,65.26
2018-10-16T23:08:09.704Z,65.75
2018-10-16T23:10:38.545Z,65.28
2018-10-16T23:13:08.533Z,65.76
2018-10-16T23:15:37.384Z,66.08
2018-10-16T23:18:09.797Z,65.86
2018-10-16T23:20:38.727Z,66.35
2018-10-16T23:23:07.627Z,66.14
2018-10-16T23:25:36.693Z,66.62
2018-10-16T23:28:06.441Z,66.05
2018-10-16T23:30:36.244Z,65.94
2018-10-16T23:33:05.674Z,66.13
2018-10-16T23:35:34.673Z,67.02
2018-10-16T23:38:05.909Z,66.59
2018-10-16T23:40:34.753Z,67.36
2018-10-16T23:43:03.751Z,66.96
2018-10-16T23:45:32.844Z,67.01
2018-10-16T23:48:02.952Z,67.50
2018-10-16T23:50:31.814Z,66.94
2018-10-16T23:53:00.717Z,67.17
2018-10-16T23:55:29.508Z,67.31
2018-10-16T23:57:58.680Z,67.56
